Time;durP1;ratioP1;P1;durP2;ratioP2;P2;SDS_P1;SDS_P2;PMS_P1;PMS_P2;Temp;Humidity;BMP_temperature;BMP_pressure;BME280_temperature;BME280_humidity;BME280_pressure;Samples;Min_cycle;Max_cycle;Signal;HPM_P1;HPM_P2
2023/11/17 00:03:29;;;;;;;37.45;19.98;;;;;;;5.52;71.96;99409.94;30971765;28;97169;-63
2023/11/17 00:18:29;;;;;;;34.17;18.93;;;;;;;5.61;71.73;99410.81;30970027;28;96694;-63
2023/11/17 00:33:29;;;;;;;31.85;18.58;;;;;;;5.65;71.74;99402.41;30969503;28;99566;-64
2023/11/17 00:48:31;;;;;;;31.63;18.80;;;;;;;5.63;72.13;99416.75;30967674;28;103180;-64
2023/11/17 01:03:31;;;;;;;37.60;20.33;;;;;;;5.52;72.34;99420.50;30967062;28;97366;-64
2023/11/17 01:18:32;;;;;;;35.25;21.02;;;;;;;5.45;72.76;99417.66;30965180;28;96665;-64
2023/11/17 01:33:32;;;;;;;37.17;20.17;;;;;;;5.50;72.83;99423.31;30963712;28;96687;-64
2023/11/17 01:48:34;;;;;;;41.70;22.13;;;;;;;5.53;72.62;99415.06;30961084;28;105007;-64
2023/11/17 02:03:39;;;;;;;30.87;18.57;;;;;;;5.59;73.04;99424.16;30961009;28;97106;-65
2023/11/17 02:18:45;;;;;;;34.80;18.40;;;;;;;5.69;73.40;99414.31;30981925;28;97230;-64
2023/11/17 02:33:48;;;;;;;32.17;18.47;;;;;;;5.82;73.55;99431.56;30981761;28;97232;-64
2023/11/17 02:48:50;;;;;;;35.63;18.60;;;;;;;5.92;73.69;99441.03;30979329;28;97087;-64
2023/11/17 03:03:51;;;;;;;28.33;16.80;;;;;;;6.04;73.47;99462.78;30977770;28;96616;-64
2023/11/17 03:18:52;;;;;;;24.00;15.15;;;;;;;6.05;74.00;99477.63;30975627;28;97117;-64
2023/11/17 03:33:52;;;;;;;15.45;10.15;;;;;;;6.02;73.54;99477.13;30974814;28;97074;-64
2023/11/17 03:48:53;;;;;;;15.82;8.80;;;;;;;6.07;74.41;99491.53;30973485;28;103892;-64
2023/11/17 04:03:53;;;;;;;14.65;9.02;;;;;;;6.17;74.25;99495.88;30972046;28;98677;-64
2023/11/17 04:18:54;;;;;;;15.93;8.38;;;;;;;6.14;74.68;99496.16;30968001;28;96623;-64
2023/11/17 04:33:54;;;;;;;10.03;5.37;;;;;;;6.05;74.66;99504.06;30966407;28;96731;-64
2023/11/17 04:48:55;;;;;;;6.18;4.20;;;;;;;5.99;74.86;99525.88;30964622;28;104099;-65
2023/11/17 05:03:55;;;;;;;11.18;6.72;;;;;;;5.87;74.51;99542.94;30963198;28;96720;-64
2023/11/17 05:18:56;;;;;;;13.82;9.40;;;;;;;5.75;75.40;99568.78;30961638;28;97640;-64
2023/11/17 05:33:57;;;;;;;17.63;10.10;;;;;;;5.73;75.50;99581.34;30960740;28;110573;-63
2023/11/17 05:48:57;;;;;;;15.17;10.33;;;;;;;5.55;75.53;99576.91;30956620;28;97536;-65
2023/11/17 06:03:59;;;;;;;15.87;10.47;;;;;;;5.28;75.62;99596.31;30955518;28;98457;-63
2023/11/17 06:19:02;;;;;;;16.27;9.32;;;;;;;4.90;75.81;99609.63;30955033;28;109467;-66
2023/11/17 06:34:04;;;;;;;13.43;8.77;;;;;;;4.61;76.32;99646.72;30953691;28;96645;-66
2023/11/17 06:49:04;;;;;;;16.85;9.38;;;;;;;4.67;76.65;99667.22;30952005;28;98198;-65
2023/11/17 07:04:12;;;;;;;14.02;9.10;;;;;;;4.52;76.45;99697.69;30972781;28;97094;-65
2023/11/17 07:19:16;;;;;;;12.68;8.65;;;;;;;4.52;76.22;99721.44;30972988;28;97035;-66
2023/11/17 07:34:16;;;;;;;10.50;6.27;;;;;;;4.79;75.73;99747.06;30970526;28;97212;-63
2023/11/17 07:49:17;;;;;;;9.13;4.80;;;;;;;5.20;74.89;99767.88;30967311;28;97015;-64
2023/11/17 08:04:17;;;;;;;7.63;5.00;;;;;;;7.10;73.44;99792.41;30967408;28;97577;-63
2023/11/17 08:19:18;;;;;;;7.97;4.40;;;;;;;7.94;69.95;99807.63;30966607;28;97128;-66
2023/11/17 08:34:20;;;;;;;5.93;3.78;;;;;;;7.92;68.53;99833.50;30964944;28;97182;-65
2023/11/17 08:49:21;;;;;;;6.70;3.37;;;;;;;8.00;66.72;99853.94;30961862;28;96952;-66
2023/11/17 09:04:21;;;;;;;7.75;2.90;;;;;;;5.76;66.87;99872.59;30962183;28;96679;-65
2023/11/17 09:19:22;;;;;;;3.55;2.42;;;;;;;4.60;67.18;99905.41;30960443;28;96621;-69
2023/11/17 09:34:22;;;;;;;8.43;2.40;;;;;;;4.23;68.10;99928.81;30959182;28;96592;-65
2023/11/17 09:49:27;;;;;;;4.65;2.55;;;;;;;4.19;68.64;99932.69;30957671;28;96717;-64
2023/11/17 10:04:29;;;;;;;4.23;2.63;;;;;;;8.61;64.72;99916.44;30957822;28;98115;-65
2023/11/17 10:19:30;;;;;;;5.77;3.23;;;;;;;7.39;63.51;99885.81;30956432;28;96728;-67
2023/11/17 10:34:31;;;;;;;4.73;3.60;;;;;;;6.02;64.28;99906.31;30969609;28;96923;-65
2023/11/17 10:49:32;;;;;;;5.55;4.22;;;;;;;5.02;65.50;99913.84;30975478;28;97214;-65
2023/11/17 11:04:32;;;;;;;8.18;4.57;;;;;;;4.49;66.56;99917.75;30973118;28;97001;-64
2023/11/17 11:19:34;;;;;;;5.18;3.58;;;;;;;4.30;66.93;99921.19;30971662;28;97088;-65
2023/11/17 11:34:34;;;;;;;5.40;3.63;;;;;;;4.25;66.98;99926.03;30969468;28;96945;-65
2023/11/17 11:49:36;;;;;;;4.43;3.08;;;;;;;5.58;65.31;99924.56;30969738;28;97244;-64
2023/11/17 12:04:36;;;;;;;11.83;4.60;;;;;;;5.07;65.52;99923.97;30969355;28;97138;-65
2023/11/17 12:19:37;;;;;;;6.32;3.22;;;;;;;4.73;66.03;99935.81;30967634;28;97293;-64
2023/11/17 12:34:42;;;;;;;4.78;2.80;;;;;;;4.58;66.25;99942.50;30965538;28;97186;-63
2023/11/17 12:49:53;;;;;;;2.90;2.22;;;;;;;4.44;66.25;99945.50;30962362;28;97045;-66
2023/11/17 13:04:54;;;;;;;4.10;2.13;;;;;;;4.43;66.59;99954.38;30962888;28;97408;-65
2023/11/17 13:19:54;;;;;;;5.53;2.67;;;;;;;4.37;66.63;99971.59;30960512;28;97470;-64
2023/11/17 13:34:55;;;;;;;3.90;2.60;;;;;;;4.38;66.65;99989.09;30959503;28;98317;-64
2023/11/17 13:50:11;;;;;;;5.43;2.80;;;;;;;4.28;66.81;100004.03;30957667;28;98281;-66
2023/11/17 14:05:11;;;;;;;4.13;2.78;;;;;;;4.28;67.00;100004.91;30957231;28;97272;-66
2023/11/17 14:20:15;;;;;;;5.63;2.97;;;;;;;4.24;67.10;100021.97;30956089;28;97439;-66
2023/11/17 14:35:17;;;;;;;4.87;3.13;;;;;;;4.20;67.51;100045.09;30955615;28;97439;-63
2023/11/17 14:50:17;;;;;;;5.70;3.97;;;;;;;4.21;67.45;100056.47;30951813;28;97169;-64
2023/11/17 15:05:21;;;;;;;6.15;3.92;;;;;;;4.24;67.49;100072.06;30952655;28;96976;-64
2023/11/17 15:20:33;;;;;;;7.57;3.83;;;;;;;4.22;67.97;100087.16;30964376;28;97349;-63
2023/11/17 15:35:36;;;;;;;6.28;3.63;;;;;;;4.17;68.09;100097.25;30972572;28;97726;-69
2023/11/17 15:50:38;;;;;;;3.63;2.50;;;;;;;4.05;68.23;100105.25;30971685;28;97253;-63
2023/11/17 16:05:38;;;;;;;5.75;3.70;;;;;;;3.99;68.63;100132.16;30969329;28;97835;-62
2023/11/17 16:20:38;;;;;;;4.22;3.25;;;;;;;3.97;68.89;100154.31;30966656;28;101374;-62
2023/11/17 16:35:39;;;;;;;7.03;3.95;;;;;;;4.01;68.94;100155.75;30964573;28;96759;-61
2023/11/17 16:50:46;;;;;;;9.20;4.83;;;;;;;4.01;69.33;100172.38;30964726;28;97247;-61
2023/11/17 17:05:46;;;;;;;7.30;4.90;;;;;;;4.06;69.23;100177.28;30961001;28;97078;-63
2023/11/17 17:20:46;;;;;;;9.52;4.05;;;;;;;4.01;69.63;100177.66;30959909;28;97939;-61
2023/11/17 17:35:47;;;;;;;8.10;4.85;;;;;;;3.97;70.62;100197.31;30956700;28;105962;-62
2023/11/17 17:50:47;;;;;;;7.00;4.13;;;;;;;3.92;70.63;100188.13;30956423;28;103463;-62
2023/11/17 18:05:49;;;;;;;6.80;4.20;;;;;;;3.80;70.68;100196.09;30958835;28;97096;-62
2023/11/17 18:20:50;;;;;;;8.32;4.68;;;;;;;3.76;71.49;100199.09;30956108;28;96803;-62
2023/11/17 18:35:51;;;;;;;8.70;4.72;;;;;;;3.75;72.08;100208.81;30953865;28;97851;-62
2023/11/17 18:50:52;;;;;;;9.77;5.20;;;;;;;3.72;72.32;100224.88;30959302;28;97170;-62
2023/11/17 19:05:53;;;;;;;8.32;4.68;;;;;;;3.76;72.24;100225.44;30973681;28;96841;-62
2023/11/17 19:20:55;;;;;;;7.13;4.80;;;;;;;3.82;72.51;100224.97;30972372;28;96961;-62
2023/11/17 19:35:55;;;;;;;5.43;3.63;;;;;;;3.86;72.73;100226.38;30973412;28;97159;-62
2023/11/17 19:50:56;;;;;;;5.45;3.60;;;;;;;3.91;72.71;100218.94;30970846;28;101469;-62
2023/11/17 20:05:56;;;;;;;6.70;4.00;;;;;;;3.88;72.28;100219.16;30969469;28;108071;-63
2023/11/17 20:20:56;;;;;;;7.00;4.10;;;;;;;3.85;72.80;100214.16;30968927;28;102500;-62
2023/11/17 20:35:57;;;;;;;5.60;3.20;;;;;;;3.89;72.83;100241.94;30967349;28;97925;-62
2023/11/17 20:50:59;;;;;;;6.97;3.90;;;;;;;3.93;72.92;100242.53;30963732;28;97611;-62
2023/11/17 21:06:00;;;;;;;5.85;3.72;;;;;;;3.92;72.97;100268.03;30964421;28;96741;-63
2023/11/17 21:21:00;;;;;;;5.93;3.67;;;;;;;3.93;73.12;100280.25;30961430;28;97055;-62
2023/11/17 21:36:00;;;;;;;6.35;3.83;;;;;;;3.95;73.31;100274.84;30962667;28;97369;-62
2023/11/17 21:51:01;;;;;;;5.57;4.20;;;;;;;3.94;73.45;100296.88;30960763;28;97364;-61
2023/11/17 22:06:05;;;;;;;7.80;3.85;;;;;;;3.98;73.58;100300.97;30959722;28;110691;-61
2023/11/17 22:21:06;;;;;;;7.13;3.67;;;;;;;4.03;73.83;100310.19;30960359;28;96786;-62
2023/11/17 22:36:06;;;;;;;7.15;3.55;;;;;;;4.00;73.96;100318.31;30979422;28;96655;-62
2023/11/17 22:51:07;;;;;;;4.20;2.90;;;;;;;3.97;73.79;100312.47;30978428;28;97154;-62
2023/11/17 23:06:07;;;;;;;6.65;2.90;;;;;;;4.03;74.40;100339.19;30977983;28;109736;-63
2023/11/17 23:21:08;;;;;;;5.18;3.08;;;;;;;4.11;73.92;100324.53;30977316;28;97354;-62
2023/11/17 23:36:10;;;;;;;4.60;2.73;;;;;;;4.09;74.17;100323.81;30976146;28;97196;-62
2023/11/17 23:51:10;;;;;;;4.35;3.10;;;;;;;4.11;74.34;100319.25;30973759;28;97595;-64
